Terminal Aerodrome Forecast
Issued by NWS

Home | Current Version | Previous Version | Text Only | Print | Product List | Glossary On
Versions: 1 2 3 4 5 6 7 8 9 10 11 12 13 14 15 16 17 18 19 20 21 22 23 24 25 26 27 28 29
000
FTUS46 KOTX 281133
TAFSFF
TAF
KSFF 281133Z 2812/2912 04004KT 5SM FU HZ FEW090 BKN150 OVC200
     FM281900 23009KT P6SM BKN100 OVC150
     FM290200 VRB03KT P6SM SCT100 BKN120 OVC150=

USA.gov is the U.S. government's official web portal to all federal, state and local government web resources and services.